Spokane International Airport
KGEG : now visible

Airfield :











YOU CAN JOIN US ON...

 
LOGIN :

Register | Disclaimer

   EN    FR    IT 

 









Legend :    VFR   Marginal VFR   IFR   Intensive IFR   Very Intensive IFR
Visi :
Ceiling :
>= 8 km
>= 3000ft
5 to 8 km
1000 to 3000 ft
1500m to 5 km
500 to 1000 ft
800 to 1500m
200 to 500 ft
< 800m
< 200 ft
Symbols :   Thunderstorms  Fog  Heavy snow  Heavy precipitations  Wind > 20 kt






- Airport Elevation : 2376 ft
- IATA code : GEG


KGEG - Spokane International

CURRENT METAR :
  • 070553Z 27003KT 10SM BKN250 21/07 A2981 RMK AO2 SLP077 T02110067 10278 20211 58011

EXPIRED METARs :
  • 070453Z 00000KT 10SM FEW060 BKN200 BKN250 23/07 A2983 RMK AO2 SLP084 T02280067
  • 070353Z 17004KT 10SM FEW060 SCT200 BKN250 24/07 A2983 RMK AO2 SLP085 T02440067

TAF KGEG
Valid from the 07 at 06:00 until the 08 at 06:00 UTC


070520Z 0706/0806 21008KT P6SM FEW060 SCT200
FM070900 19008KT P6SM VCSH SCT100 BKN150
FM071000 19013G19KT P6SM -SHRA SCT080 OVC100
FM071400 19010KT P6SM FEW045 SCT090
FM071500 20011G20KT P6SM FEW030 SCT050
FM071800 21016G25KT P6SM SCT040 BKN070
FM080300 22010KT P6SM SCT080
KZSE FIR / North America



MET'MAP, your aeronautical weather chart ! - Copyright ORBIFLY December 2007 - Disclaimer

ORBIFLY MET'MAP TEAM :

Programming & Development : Alexandra Zaïnal
Concept & original design : Baudouin d'Aumeries
Assistance for programming : Marc-Olivier Méhu
Technical & hardware support : Manuel Goepfert

Contact : metmap@orbifly.com




SOURCES & CREDITS :

   NOAA       Earth
Advisory